createdAt,value
2023-02-04T00:01:58.058Z,102328.00
2023-02-04T00:04:24.692Z,102322.84
2023-02-04T00:06:51.176Z,102335.03
2023-02-04T00:09:17.578Z,102339.00
2023-02-04T00:11:44.874Z,102342.09
2023-02-04T00:14:11.750Z,102344.13
2023-02-04T00:16:38.154Z,102353.44
2023-02-04T00:19:04.587Z,102351.72
2023-02-04T00:21:30.989Z,102349.97
2023-02-04T00:23:57.403Z,102353.75
2023-02-04T00:26:23.887Z,102359.25
2023-02-04T00:28:50.290Z,102351.19
2023-02-04T00:31:16.821Z,102360.97
2023-02-04T00:33:43.833Z,102369.06
2023-02-04T00:36:10.425Z,102371.66
2023-02-04T00:38:36.850Z,102392.75
2023-02-04T00:41:03.528Z,102382.63
2023-02-04T00:43:30.030Z,102380.22
2023-02-04T00:45:56.550Z,102381.25
2023-02-04T00:48:23.031Z,102388.13
2023-02-04T00:50:49.443Z,102382.63
2023-02-04T00:53:15.833Z,102381.94
2023-02-04T00:55:42.271Z,102384.00
2023-02-04T00:58:08.742Z,102386.75
2023-02-04T01:00:35.218Z,102392.59
2023-02-04T01:03:01.767Z,102389.31
2023-02-04T01:05:28.217Z,102396.69
2023-02-04T01:07:54.868Z,102404.91
2023-02-04T01:10:21.294Z,102405.78
2023-02-04T01:12:47.832Z,102416.44
2023-02-04T01:15:14.569Z,102415.56
2023-02-04T01:17:41.789Z,102415.56
2023-02-04T01:20:09.683Z,102421.75
2023-02-04T01:22:36.197Z,102418.28
2023-02-04T01:25:02.710Z,102426.38
2023-02-04T01:27:29.198Z,102431.69
2023-02-04T01:29:55.596Z,102427.38
2023-02-04T01:32:21.984Z,102436.66
2023-02-04T01:34:48.368Z,102431.16
2023-02-04T01:37:14.831Z,102435.78
2023-02-04T01:39:41.271Z,102439.56
2023-02-04T01:42:07.804Z,102439.22
2023-02-04T01:44:34.247Z,102442.16
2023-02-04T01:47:00.796Z,102444.03
2023-02-04T01:49:27.706Z,102450.22
2023-02-04T01:51:54.117Z,102448.47
2023-02-04T01:54:21.991Z,102453.31
2023-02-04T01:56:51.592Z,102456.72
2023-02-04T01:59:19.060Z,102457.06
2023-02-04T02:01:51.307Z,102460.09
2023-02-04T02:04:39.350Z,102460.44
2023-02-04T02:07:06.625Z,102466.41
2023-02-04T02:09:34.282Z,102461.44
2023-02-04T02:12:02.453Z,102464.50
2023-02-04T02:14:28.870Z,102458.66
2023-02-04T02:16:55.323Z,102470.78
2023-02-04T02:19:30.871Z,102478.50
2023-02-04T02:22:05.127Z,102482.63
2023-02-04T02:24:33.827Z,102490.47
2023-02-04T02:27:04.718Z,102493.53
2023-02-04T02:29:31.240Z,102491.81
2023-02-04T02:31:58.795Z,102503.81
2023-02-04T02:34:27.312Z,102504.84
2023-02-04T02:36:54.233Z,102505.88
2023-02-04T02:39:21.562Z,102512.69
2023-02-04T02:41:48.205Z,102517.19
2023-02-04T02:44:16.714Z,102530.72
2023-02-04T02:46:43.295Z,102509.63
2023-02-04T02:49:15.922Z,102518.59
2023-02-04T02:51:43.695Z,102518.59
2023-02-04T02:54:34.083Z,102526.63
2023-02-04T02:57:00.566Z,102512.78
2023-02-04T02:59:27.693Z,102519.13
2023-02-04T03:02:02.031Z,102514.47
2023-02-04T03:04:31.959Z,102511.91
2023-02-04T03:06:58.751Z,102527.38
2023-02-04T03:09:27.548Z,102528.19
2023-02-04T03:11:54.288Z,102526.31
2023-02-04T03:14:22.391Z,102532.66
2023-02-04T03:16:48.964Z,102539.19
2023-02-04T03:19:15.794Z,102534.72
2023-02-04T03:21:42.826Z,102533.88
2023-02-04T03:24:09.579Z,102536.75
2023-02-04T03:26:36.067Z,102540.56
2023-02-04T03:29:02.699Z,102548.94
2023-02-04T03:31:29.176Z,102545.31
2023-02-04T03:33:55.601Z,102548.38
2023-02-04T03:36:22.418Z,102550.13
2023-02-04T03:38:48.881Z,102553.56
2023-02-04T03:41:15.259Z,102545.47
2023-02-04T03:43:41.662Z,102548.38
2023-02-04T03:46:08.074Z,102549.41
2023-02-04T03:48:34.466Z,102552.16
2023-02-04T03:51:00.897Z,102565.88
2023-02-04T03:53:27.431Z,102563.31
2023-02-04T03:55:53.893Z,102559.69
2023-02-04T03:58:21.435Z,102559.69
2023-02-04T04:00:47.863Z,102565.31
2023-02-04T04:03:14.305Z,102566.53
2023-02-04T04:05:40.740Z,102567.53
2023-02-04T04:08:07.354Z,102567.53
2023-02-04T04:10:34.119Z,102565.78
2023-02-04T04:13:00.715Z,102569.59
2023-02-04T04:15:27.223Z,102561.50
2023-02-04T04:17:53.582Z,102574.53
2023-02-04T04:20:20.139Z,102569.88
2023-02-04T04:22:46.518Z,102571.94
2023-02-04T04:25:12.903Z,102579.16
2023-02-04T04:27:39.418Z,102573.66
2023-02-04T04:30:06.147Z,102580.16
2023-02-04T04:32:32.552Z,102578.44
2023-02-04T04:34:59.006Z,102587.53
2023-02-04T04:37:25.427Z,102582.91
2023-02-04T04:39:51.913Z,102580.16
2023-02-04T04:42:18.288Z,102582.03
2023-02-04T04:44:44.684Z,102579.16
2023-02-04T04:47:11.315Z,102577.28
2023-02-04T04:49:37.698Z,102571.59
2023-02-04T04:52:04.385Z,102571.59
2023-02-04T04:54:30.822Z,102575.06
2023-02-04T04:56:57.248Z,102571.28
2023-02-04T04:59:23.637Z,102585.00
2023-02-04T05:01:50.018Z,102586.06
2023-02-04T05:04:16.448Z,102588.06
2023-02-04T05:06:42.860Z,102588.94
2023-02-04T05:09:09.735Z,102601.09
2023-02-04T05:11:36.134Z,102600.06
2023-02-04T05:14:02.575Z,102608.31
2023-02-04T05:16:29.121Z,102618.44
2023-02-04T05:18:55.648Z,102624.22
2023-02-04T05:21:22.082Z,102617.91
2023-02-04T05:23:48.476Z,102618.19
2023-02-04T05:26:25.127Z,102621.97
2023-02-04T05:28:55.894Z,102617.50
2023-02-04T05:31:22.359Z,102613.00
2023-02-04T05:33:48.838Z,102614.75
2023-02-04T05:36:15.293Z,102608.53
2023-02-04T05:38:41.779Z,102613.88
2023-02-04T05:41:08.162Z,102621.09
2023-02-04T05:43:35.217Z,102618.50
2023-02-04T05:46:02.724Z,102622.97
2023-02-04T05:48:29.177Z,102618.50
2023-02-04T05:50:55.617Z,102618.50
2023-02-04T05:53:22.004Z,102619.38
2023-02-04T05:55:48.502Z,102620.22
2023-02-04T05:58:14.894Z,102635.69
2023-02-04T06:00:41.360Z,102636.69
2023-02-04T06:03:07.760Z,102635.97
2023-02-04T06:05:34.275Z,102640.78
2023-02-04T06:08:00.689Z,102648.00
2023-02-04T06:10:27.117Z,102653.47
2023-02-04T06:12:53.510Z,102657.94
2023-02-04T06:15:20.488Z,102664.47
2023-02-04T06:17:46.878Z,102659.66
2023-02-04T06:20:14.830Z,102672.38
2023-02-04T06:22:41.259Z,102679.59
2023-02-04T06:25:07.999Z,102673.06
2023-02-04T06:27:34.461Z,102667.59
2023-02-04T06:30:00.877Z,102668.44
2023-02-04T06:32:27.327Z,102671.91
2023-02-04T06:34:53.738Z,102672.06
2023-02-04T06:37:20.367Z,102672.22
2023-02-04T06:39:46.779Z,102678.56
2023-02-04T06:42:13.184Z,102683.34
2023-02-04T06:44:39.641Z,102690.56
2023-02-04T06:47:06.042Z,102687.84
2023-02-04T06:49:32.485Z,102685.09
2023-02-04T06:51:58.914Z,102702.25
2023-02-04T06:54:25.385Z,102698.50
2023-02-04T06:56:51.826Z,102703.97
2023-02-04T06:59:18.442Z,102706.56
2023-02-04T07:01:45.120Z,102700.94
2023-02-04T07:04:11.543Z,102708.28
2023-02-04T07:06:37.939Z,102714.66
2023-02-04T07:09:04.467Z,102721.88
2023-02-04T07:11:30.905Z,102730.81
2023-02-04T07:13:57.448Z,102730.81
2023-02-04T07:16:23.857Z,102721.56
2023-02-04T07:18:50.285Z,102721.69
2023-02-04T07:21:16.649Z,102724.44
2023-02-04T07:23:43.060Z,102730.81
2023-02-04T07:26:09.486Z,102732.53
2023-02-04T07:28:36.958Z,102733.53
2023-02-04T07:31:03.676Z,102734.41
2023-02-04T07:33:30.241Z,102730.66
2023-02-04T07:35:56.654Z,102735.97
2023-02-04T07:38:23.096Z,102737.72
2023-02-04T07:40:49.559Z,102751.31
2023-02-04T07:43:15.966Z,102748.38
2023-02-04T07:45:42.352Z,102746.38
2023-02-04T07:48:08.748Z,102754.09
2023-02-04T07:50:35.444Z,102751.22
2023-02-04T07:53:02.122Z,102748.16
2023-02-04T07:55:28.684Z,102751.78
2023-02-04T07:57:58.328Z,102759.88
2023-02-04T08:00:24.775Z,102768.25
2023-02-04T08:02:51.335Z,102761.75
2023-02-04T08:05:18.143Z,102765.38
2023-02-04T08:07:44.646Z,102764.63
2023-02-04T08:10:11.983Z,102772.19
2023-02-04T08:12:38.487Z,102769.44
2023-02-04T08:15:07.784Z,102773.75
2023-02-04T08:17:34.522Z,102793.69
2023-02-04T08:20:00.990Z,102781.53
2023-02-04T08:22:27.396Z,102783.81
2023-02-04T08:24:53.842Z,102786.06
2023-02-04T08:27:20.437Z,102792.97
2023-02-04T08:29:46.843Z,102798.19
2023-02-04T08:32:13.487Z,102791.50
2023-02-04T08:34:40.249Z,102795.13
2023-02-04T08:37:06.734Z,102793.81
2023-02-04T08:39:33.292Z,102793.31
2023-02-04T08:41:59.720Z,102801.09
2023-02-04T08:44:26.166Z,102808.47
2023-02-04T08:46:52.626Z,102810.22
2023-02-04T08:49:19.111Z,102805.56
2023-02-04T08:51:45.640Z,102811.06
2023-02-04T08:54:12.102Z,102815.38
2023-02-04T08:56:38.517Z,102814.84
2023-02-04T08:59:04.946Z,102812.81
2023-02-04T09:01:31.388Z,102818.00
2023-02-04T09:03:58.204Z,102816.09
2023-02-04T09:06:24.604Z,102815.94
2023-02-04T09:08:50.998Z,102815.63
2023-02-04T09:11:17.441Z,102824.41
2023-02-04T09:13:43.902Z,102827.00
2023-02-04T09:16:10.838Z,102822.94
2023-02-04T09:18:37.402Z,102821.75
2023-02-04T09:21:03.999Z,102828.66
2023-02-04T09:23:30.465Z,102826.47
2023-02-04T09:25:56.974Z,102839.75
2023-02-04T09:28:23.329Z,102833.06
2023-02-04T09:30:49.774Z,102836.19
2023-02-04T09:33:19.264Z,102843.66
2023-02-04T09:35:45.693Z,102848.53
2023-02-04T09:38:12.122Z,102842.22
2023-02-04T09:40:43.189Z,102838.31
2023-02-04T09:43:17.794Z,102851.88
2023-02-04T09:45:44.351Z,102846.72
2023-02-04T09:48:14.109Z,102854.97
2023-02-04T09:50:41.624Z,102864.94
2023-02-04T09:53:13.971Z,102869.66
2023-02-04T09:55:43.211Z,102867.06
2023-02-04T09:58:21.942Z,102869.41
2023-02-04T10:00:56.580Z,102879.94
2023-02-04T10:03:23.295Z,102883.56
2023-02-04T10:05:51.443Z,102879.94
2023-02-04T10:08:20.824Z,102878.75
2023-02-04T10:10:49.575Z,102884.66
2023-02-04T10:13:23.727Z,102878.28
2023-02-04T10:15:51.074Z,102877.13
2023-02-04T10:18:26.725Z,102881.56
2023-02-04T10:21:00.827Z,102885.75
2023-02-04T10:23:27.289Z,102885.03
2023-02-04T10:25:53.710Z,102884.41
2023-02-04T10:28:20.201Z,102889.75
2023-02-04T10:30:47.164Z,102889.25
2023-02-04T10:33:15.337Z,102884.13
2023-02-04T10:35:51.234Z,102889.63
2023-02-04T10:38:18.280Z,102882.34
2023-02-04T10:40:46.147Z,102877.63
2023-02-04T10:43:22.726Z,102877.00
2023-02-04T10:45:58.105Z,102879.09
2023-02-04T10:48:25.299Z,102875.31
2023-02-04T10:50:51.871Z,102874.84
2023-02-04T10:53:39.180Z,102877.78
2023-02-04T10:56:15.885Z,102877.50
2023-02-04T10:58:42.858Z,102873.06
2023-02-04T11:01:11.994Z,102881.50
2023-02-04T11:03:40.033Z,102868.63
2023-02-04T11:06:17.717Z,102872.75
2023-02-04T11:08:44.308Z,102872.09
2023-02-04T11:11:20.163Z,102876.28
2023-02-04T11:13:49.470Z,102875.22
2023-02-04T11:16:18.823Z,102872.47
2023-02-04T11:18:51.390Z,102878.84
2023-02-04T11:21:23.774Z,102867.66
2023-02-04T11:23:51.025Z,102872.81
2023-02-04T11:26:33.727Z,102873.13
2023-02-04T11:29:00.061Z,102872.56
2023-02-04T11:31:28.678Z,102864.03
2023-02-04T11:34:18.376Z,102853.22
2023-02-04T11:37:04.429Z,102852.34
2023-02-04T11:39:47.928Z,102850.75
2023-02-04T11:42:29.747Z,102852.25
2023-02-04T11:45:00.784Z,102846.66
2023-02-04T11:47:33.669Z,102853.66
2023-02-04T11:50:04.351Z,102851.47
2023-02-04T11:52:30.882Z,102853.03
2023-02-04T11:55:00.349Z,102847.75
2023-02-04T11:57:27.298Z,102850.22
2023-02-04T11:59:54.560Z,102849.38
2023-02-04T12:02:23.757Z,102850.81
2023-02-04T12:05:09.221Z,102854.66
2023-02-04T12:07:36.286Z,102854.50
2023-02-04T12:10:21.894Z,102867.88
2023-02-04T12:12:55.795Z,102858.53
2023-02-04T12:15:24.952Z,102851.41
2023-02-04T12:18:04.788Z,102857.53
2023-02-04T12:20:31.234Z,102865.38
2023-02-04T12:22:57.766Z,102861.13
2023-02-04T12:25:24.973Z,102858.75
2023-02-04T12:27:51.758Z,102862.53
2023-02-04T12:30:18.563Z,102871.47
2023-02-04T12:32:44.939Z,102865.09
2023-02-04T12:35:11.475Z,102864.34
2023-02-04T12:37:37.934Z,102863.19
2023-02-04T12:40:04.811Z,102866.47
2023-02-04T12:42:31.201Z,102858.66
2023-02-04T12:44:57.626Z,102856.69
2023-02-04T12:47:24.045Z,102860.94
2023-02-04T12:49:50.421Z,102865.19
2023-02-04T12:52:16.835Z,102880.09
2023-02-04T12:54:43.740Z,102872.56
2023-02-04T12:57:11.565Z,102882.47
2023-02-04T12:59:37.977Z,102875.75
2023-02-04T13:02:04.435Z,102878.38
2023-02-04T13:04:30.846Z,102868.91
2023-02-04T13:06:57.190Z,102868.38
2023-02-04T13:09:23.610Z,102871.19
2023-02-04T13:11:50.058Z,102871.22
2023-02-04T13:14:16.496Z,102862.28
2023-02-04T13:16:42.892Z,102865.56
2023-02-04T13:19:09.346Z,102869.03
2023-02-04T13:21:35.778Z,102867.50
2023-02-04T13:24:02.212Z,102876.63
2023-02-04T13:26:28.583Z,102872.16
2023-02-04T13:28:54.990Z,102869.75
2023-02-04T13:31:21.544Z,102866.28
2023-02-04T13:33:47.965Z,102864.53
2023-02-04T13:36:14.395Z,102859.56
2023-02-04T13:38:40.824Z,102859.88
2023-02-04T13:41:07.266Z,102859.88
2023-02-04T13:43:33.678Z,102865.59
2023-02-04T13:46:01.907Z,102861.44
2023-02-04T13:48:28.324Z,102873.00
2023-02-04T13:50:54.743Z,102867.47
2023-02-04T13:53:21.202Z,102856.59
2023-02-04T13:55:47.613Z,102859.72
2023-02-04T13:58:14.158Z,102850.41
2023-02-04T14:00:40.627Z,102863.34
2023-02-04T14:03:07.020Z,102855.56
2023-02-04T14:05:33.444Z,102849.03
2023-02-04T14:07:59.898Z,102866.25
2023-02-04T14:10:27.104Z,102867.84
2023-02-04T14:12:54.091Z,102854.19
2023-02-04T14:15:20.625Z,102859.56
2023-02-04T14:17:47.073Z,102861.78
2023-02-04T14:20:13.519Z,102855.22
2023-02-04T14:22:40.005Z,102853.13
2023-02-04T14:25:06.904Z,102853.78
2023-02-04T14:27:35.314Z,102858.91
2023-02-04T14:30:01.809Z,102859.53
2023-02-04T14:32:28.275Z,102857.00
2023-02-04T14:34:54.774Z,102857.59
2023-02-04T14:37:21.210Z,102857.78
2023-02-04T14:39:47.580Z,102856.22
2023-02-04T14:42:13.971Z,102853.53
2023-02-04T14:44:40.384Z,102854.91
2023-02-04T14:47:06.838Z,102841.06
2023-02-04T14:49:34.826Z,102852.63
2023-02-04T14:52:01.338Z,102846.78
2023-02-04T14:54:27.774Z,102847.75
2023-02-04T14:56:54.519Z,102845.72
2023-02-04T14:59:21.146Z,102848.13
2023-02-04T15:01:47.586Z,102848.22
2023-02-04T15:04:14.042Z,102855.31
2023-02-04T15:06:40.592Z,102851.19
2023-02-04T15:09:07.114Z,102857.59
2023-02-04T15:11:34.568Z,102857.56
2023-02-04T15:14:01.009Z,102858.06
2023-02-04T15:16:27.449Z,102864.81
2023-02-04T15:18:54.049Z,102864.47
2023-02-04T15:21:20.485Z,102871.59
2023-02-04T15:23:47.466Z,102876.72
2023-02-04T15:26:14.483Z,102875.16
2023-02-04T15:28:41.003Z,102873.19
2023-02-04T15:31:07.600Z,102877.59
2023-02-04T15:33:34.029Z,102889.34
2023-02-04T15:36:00.416Z,102886.66
2023-02-04T15:38:26.850Z,102896.94
2023-02-04T15:40:53.262Z,102891.66
2023-02-04T15:43:19.951Z,102891.19
2023-02-04T15:45:46.414Z,102893.66
2023-02-04T15:48:12.814Z,102892.50
2023-02-04T15:50:39.550Z,102893.53
2023-02-04T15:53:06.700Z,102902.16
2023-02-04T15:55:33.170Z,102896.31
2023-02-04T15:57:59.579Z,102899.88
2023-02-04T16:00:26.097Z,102901.75
2023-02-04T16:02:52.518Z,102899.31
2023-02-04T16:05:19.070Z,102898.59
2023-02-04T16:07:45.509Z,102900.81
2023-02-04T16:10:11.994Z,102901.97
2023-02-04T16:12:38.480Z,102903.00
2023-02-04T16:15:05.520Z,102907.06
2023-02-04T16:17:32.024Z,102905.47
2023-02-04T16:19:58.506Z,102912.97
2023-02-04T16:22:25.045Z,102914.47
2023-02-04T16:24:52.857Z,102921.13
2023-02-04T16:27:19.876Z,102922.41
2023-02-04T16:29:47.132Z,102922.84
2023-02-04T16:32:13.905Z,102932.34
2023-02-04T16:34:40.368Z,102928.97
2023-02-04T16:37:06.950Z,102925.59
2023-02-04T16:39:33.427Z,102924.97
2023-02-04T16:41:59.955Z,102930.69
2023-02-04T16:44:26.346Z,102931.66
2023-02-04T16:46:52.728Z,102942.69
2023-02-04T16:49:19.116Z,102944.34
2023-02-04T16:51:45.662Z,102943.09
2023-02-04T16:54:12.183Z,102945.03
2023-02-04T16:56:38.599Z,102940.63
2023-02-04T16:59:05.239Z,102956.25
2023-02-04T17:01:31.998Z,102962.13
2023-02-04T17:03:58.371Z,102956.97
2023-02-04T17:06:26.714Z,102960.63
2023-02-04T17:08:53.231Z,102959.63
2023-02-04T17:11:29.028Z,102970.34
2023-02-04T17:13:56.552Z,102979.88
2023-02-04T17:16:23.008Z,102981.50
2023-02-04T17:18:49.499Z,102981.91
2023-02-04T17:21:17.347Z,102986.81
2023-02-04T17:23:44.649Z,102990.72
2023-02-04T17:26:11.167Z,102988.25
2023-02-04T17:28:37.574Z,102983.94
2023-02-04T17:31:04.286Z,102984.22
2023-02-04T17:33:30.949Z,102983.94
2023-02-04T17:35:57.328Z,102981.63
2023-02-04T17:38:26.380Z,102985.81
2023-02-04T17:40:55.816Z,102982.19
2023-02-04T17:43:23.694Z,102974.13
2023-02-04T17:45:51.085Z,102980.78
2023-02-04T17:48:17.983Z,102983.66
2023-02-04T17:50:44.868Z,102992.16
2023-02-04T17:53:11.440Z,102987.81
2023-02-04T17:55:39.425Z,102990.72
2023-02-04T17:58:16.833Z,102985.38
2023-02-04T18:00:45.779Z,102986.41
2023-02-04T18:03:19.364Z,102990.84
2023-02-04T18:05:48.451Z,102993.59
2023-02-04T18:08:24.706Z,102989.16
2023-02-04T18:10:53.994Z,102986.25
2023-02-04T18:13:32.812Z,102987.13
2023-02-04T18:16:02.870Z,102991.88
2023-02-04T18:18:36.534Z,102998.38
2023-02-04T18:21:19.035Z,102992.16
2023-02-04T18:23:46.055Z,102993.19
2023-02-04T18:26:25.783Z,102994.91
2023-02-04T18:28:52.644Z,102998.50
2023-02-04T18:31:39.309Z,102994.91
2023-02-04T18:34:20.927Z,102996.94
2023-02-04T18:36:48.252Z,103005.28
2023-02-04T18:39:34.894Z,102999.22
2023-02-04T18:42:01.301Z,102999.50
2023-02-04T18:44:37.936Z,103003.25
2023-02-04T18:47:23.890Z,102995.31
2023-02-04T18:49:50.435Z,102989.41
2023-02-04T18:52:21.327Z,102994.16
2023-02-04T18:55:18.276Z,102996.31
2023-02-04T18:57:44.746Z,102993.75
2023-02-04T19:00:14.551Z,102989.97
2023-02-04T19:02:48.333Z,102985.34
2023-02-04T19:05:47.493Z,102994.56
2023-02-04T19:08:29.218Z,102993.44
2023-02-04T19:10:57.968Z,102996.19
2023-02-04T19:13:36.406Z,102994.03
2023-02-04T19:16:23.312Z,102996.91
2023-02-04T19:18:50.947Z,102992.41
2023-02-04T19:21:28.579Z,102992.41
2023-02-04T19:24:01.108Z,103003.38
2023-02-04T19:26:40.163Z,102993.44
2023-02-04T19:29:24.901Z,102998.94
2023-02-04T19:31:58.511Z,102998.63
2023-02-04T19:34:28.527Z,102999.63
2023-02-04T19:36:55.280Z,102997.91
2023-02-04T19:39:40.204Z,102997.91
2023-02-04T19:42:32.809Z,102998.94
2023-02-04T19:45:16.976Z,103002.66
2023-02-04T19:47:44.757Z,103007.16
2023-02-04T19:50:13.851Z,103010.75
2023-02-04T19:53:09.284Z,103011.88
2023-02-04T19:55:44.174Z,103011.03
2023-02-04T19:58:24.858Z,103015.66
2023-02-04T20:01:04.840Z,103009.16
2023-02-04T20:03:42.069Z,103006.13
2023-02-04T20:06:18.243Z,103006.13
2023-02-04T20:08:46.850Z,103013.22
2023-02-04T20:11:37.993Z,103008.72
2023-02-04T20:14:10.469Z,103009.59
2023-02-04T20:17:18.408Z,103010.59
2023-02-04T20:19:45.452Z,103013.06
2023-02-04T20:22:32.029Z,103019.13
2023-02-04T20:25:26.142Z,103013.63
2023-02-04T20:27:55.464Z,103013.63
2023-02-04T20:30:26.957Z,103020.72
2023-02-04T20:32:56.699Z,103016.69
2023-02-04T20:35:23.021Z,103021.72
2023-02-04T20:37:52.719Z,103028.97
2023-02-04T20:40:23.838Z,103031.56
2023-02-04T20:43:01.526Z,103026.97
2023-02-04T20:45:36.505Z,103038.06
2023-02-04T20:48:15.165Z,103028.38
2023-02-04T20:50:52.823Z,103028.50
2023-02-04T20:53:36.699Z,103030.41
2023-02-04T20:56:28.625Z,103031.25
2023-02-04T20:59:23.749Z,103030.41
2023-02-04T21:01:50.585Z,103027.22
2023-02-04T21:04:25.884Z,103023.34
2023-02-04T21:06:54.824Z,103021.31
2023-02-04T21:09:25.466Z,103019.44
2023-02-04T21:11:54.121Z,103011.34
2023-02-04T21:14:21.713Z,103012.38
2023-02-04T21:16:48.419Z,103018.56
2023-02-04T21:19:15.841Z,103016.00
2023-02-04T21:21:42.470Z,103015.13
2023-02-04T21:24:09.461Z,103011.63
2023-02-04T21:26:35.964Z,103013.50
2023-02-04T21:29:02.555Z,103016.25
2023-02-04T21:31:29.381Z,103017.13
2023-02-04T21:33:56.966Z,103013.38
2023-02-04T21:36:24.400Z,103010.63
2023-02-04T21:38:51.128Z,103009.63
2023-02-04T21:41:17.704Z,102996.78
2023-02-04T21:43:44.104Z,103004.00
2023-02-04T21:46:10.580Z,103017.56
2023-02-04T21:48:37.002Z,103016.00
2023-02-04T21:51:03.524Z,103018.72
2023-02-04T21:53:29.995Z,103015.25
2023-02-04T21:55:59.045Z,103022.91
2023-02-04T21:58:28.625Z,103022.91
2023-02-04T22:00:55.148Z,103024.06
2023-02-04T22:03:21.669Z,103012.22
2023-02-04T22:05:48.217Z,103014.97
2023-02-04T22:08:14.828Z,103006.44
2023-02-04T22:10:41.544Z,103008.19
2023-02-04T22:13:08.067Z,103014.25
2023-02-04T22:15:34.976Z,103008.75
2023-02-04T22:18:02.400Z,103013.38
2023-02-04T22:20:30.447Z,103025.34
2023-02-04T22:22:59.237Z,103023.47
2023-02-04T22:25:25.802Z,103029.13
2023-02-04T22:27:52.482Z,103020.03
2023-02-04T22:30:19.925Z,103025.63
2023-02-04T22:32:46.550Z,103020.16
2023-02-04T22:35:14.263Z,103024.63
2023-02-04T22:37:41.881Z,103016.41
2023-02-04T22:40:10.121Z,103015.66
2023-02-04T22:42:36.551Z,103012.06
2023-02-04T22:45:03.977Z,103012.06
2023-02-04T22:47:30.965Z,103017.69
2023-02-04T22:49:57.617Z,103017.69
2023-02-04T22:52:24.402Z,103016.84
2023-02-04T22:54:51.685Z,103014.09
2023-02-04T22:57:18.456Z,103015.97
2023-02-04T22:59:44.913Z,103011.34
2023-02-04T23:02:11.432Z,103017.53
2023-02-04T23:04:37.858Z,103016.69
2023-02-04T23:07:04.773Z,103015.84
2023-02-04T23:09:32.879Z,103013.09
2023-02-04T23:12:12.537Z,103008.59
2023-02-04T23:14:45.546Z,103002.25
2023-02-04T23:17:13.252Z,103001.25
2023-02-04T23:19:40.209Z,103002.13
2023-02-04T23:22:08.146Z,102999.22
2023-02-04T23:24:35.735Z,102997.22
2023-02-04T23:27:04.094Z,102991.72
2023-02-04T23:29:35.471Z,102990.88
2023-02-04T23:32:02.424Z,103004.44
2023-02-04T23:34:28.983Z,102999.66
2023-02-04T23:36:55.425Z,103000.66
2023-02-04T23:39:22.243Z,103007.31
2023-02-04T23:41:49.402Z,103010.19
2023-02-04T23:44:16.270Z,103022.03
2023-02-04T23:46:43.113Z,103013.06
2023-02-04T23:49:10.099Z,103021.28
2023-02-04T23:51:36.711Z,103016.81
2023-02-04T23:54:03.433Z,103023.31
2023-02-04T23:56:30.258Z,103028.06
2023-02-04T23:58:56.722Z,103028.34
